• Join FlightAware (Why Join?)
  • Login
  • US Flag 
04:13AM EDT


 

Airport Tracker/Info


-or-


 

Live Flight TrackerFlight Track Log ✈ EJA839 ✈ 18-Apr-2013 ✈ KSMO - KLVK

Flight Track Log - Related Links

Times and Time Zones

All times are in EDT time to prevent confusion due to time zone crossing. See the EJA839 flight status page for this flight to view local times or setup timezone preferences in your user account.

Time Position Orientation Groundspeed Altitude Reporting Facility
EDT Latitude Longitude Course Direction KTS MPH feet Rate Location/Type
07:48PM 34.0000 -118.4667 270° West 163 188 700  Level Southern California TRACON
07:49PM 34.0000 -118.5333 270° West 217 250 2,300 1,680 Climbing Southern California TRACON
07:49PM 33.9950 -118.5583 256° West 221 254 2,800 2,100 Climbing Los Angeles Center
07:50PM 33.9961 -118.6494 271° West 250 288 5,000 2,280 Climbing Los Angeles Center
07:51PM 34.0539 -118.6722 342° North 256 295 7,600 2,460 Climbing Los Angeles Center
07:52PM 34.1269 -118.6564 10° North 248 285 10,200 2,220 Climbing Los Angeles Center
07:53PM 34.2003 -118.6411 10° North 260 299 12,300 2,220 Climbing Los Angeles Center
07:55PM 34.2772 -118.6519 353° North 278 320 14,800 2,100 Climbing Los Angeles Center
07:56PM 34.3575 -118.6833 342° North 298 343 16,700 1,800 Climbing Los Angeles Center
07:57PM 34.4439 -118.7167 342° North 320 368 18,600 1,560 Climbing Los Angeles Center
07:58PM 34.5300 -118.7503 342° North 326 375 20,000 1,200 Climbing Los Angeles Center
07:59PM 34.6392 -118.7964 341° North 349 402 21,200 1,260 Climbing Los Angeles Center
08:00PM 34.7297 -118.8331 342° North 345 397 22,700 1,320 Climbing Los Angeles Center
08:01PM 34.8172 -118.8786 337° Northwest 349 402 24,000 960 Climbing Los Angeles Center
08:02PM 34.8964 -118.9531 322° Northwest 356 410 24,800 1,080 Climbing Los Angeles Center
08:03PM 34.9731 -119.0278 321° Northwest 354 407 26,300 1,440 Climbing Los Angeles Center
08:04PM 35.0492 -119.1025 321° Northwest 352 405 27,800 1,620 Climbing Los Angeles Center
08:05PM 35.1408 -119.1900 322° Northwest 351 404 29,700 720 Climbing Los Angeles Center
08:07PM 35.2825 -119.3294 321° Northwest 379 436 30,000 60 Climbing Oakland Center
08:08PM 35.3661 -119.4122 321° Northwest 388 447 30,000  Level Oakland Center
08:09PM 35.4525 -119.4978 321° Northwest 399 459 30,000  Level Oakland Center
08:10PM 35.5369 -119.5811 321° Northwest 395 455 30,000  Level Oakland Center
08:11PM 35.6383 -119.6836 321° Northwest 396 456 30,000  Level Oakland Center
08:12PM 35.7228 -119.7672 321° Northwest 394 453 30,000  Level Oakland Center
08:13PM 35.8094 -119.8522 322° Northwest 400 460 30,000  Level Oakland Center
08:14PM 35.8936 -119.9381 320° Northwest 397 457 30,000 -300 Level Oakland Center
08:15PM 35.9844 -120.0128 326° Northwest 405 466 29,400 -840 Descending Oakland Center
08:16PM 36.0822 -120.0694 335° Northwest 394 453 28,400 -840 Descending Oakland Center
08:17PM 36.1783 -120.1297 333° Northwest 389 448 27,700 -960 Descending Oakland Center
08:18PM 36.2928 -120.2006 333° Northwest 386 444 26,500 -840 Descending Oakland Center
08:19PM 36.3867 -120.2589 333° Northwest 379 436 26,000 -300 Descending Oakland Center
08:20PM 36.4764 -120.3153 333° Northwest 363 418 26,000 -60 Level Oakland Center
08:21PM 36.5672 -120.3722 333° Northwest 367 422 25,900 -600 Descending Oakland Center
08:22PM 36.6614 -120.4297 334° Northwest 376 433 24,900 -1,080 Descending Oakland Center
08:23PM 36.7528 -120.4872 333° Northwest 371 427 23,800 -1,080 Descending Oakland Center
08:24PM 36.8394 -120.5428 333° Northwest 365 420 22,700 -1,380 Descending Oakland Center
08:25PM 36.9467 -120.6114 333° Northwest 358 412 21,000 -1,560 Descending Oakland Center
08:26PM 37.0333 -120.6650 334° Northwest 347 399 19,600 -1,440 Descending Oakland Center
08:27PM 37.1194 -120.7197 333° Northwest 345 397 18,100 -1,320 Descending Oakland Center
08:28PM 37.1667 -120.7500 333° Northwest 350 403 17,700 -1,320 Descending Northern Cal TRACON
08:29PM 37.2500 -120.8000 334° Northwest 319 367 16,200 -1,740 Descending Northern Cal TRACON
08:30PM 37.3167 -120.8500 329° Northwest 330 380 14,400 -1,560 Descending Northern Cal TRACON
08:30PM 37.3506 -120.8997 311° West 332 382 13,700 -1,020 Descending Oakland Center
08:31PM 37.4125 -120.9878 312° West 334 384 12,700 -1,140 Descending Oakland Center
08:32PM 37.4333 -121.0167 312° West 330 380 12,300 -1,080 Descending Northern Cal TRACON
08:33PM 37.4833 -121.1000 307° West 323 372 11,400 -960 Descending Northern Cal TRACON
08:34PM 37.5500 -121.2000 310° West 288 331 10,300 -1,140 Descending Northern Cal TRACON
08:35PM 37.6000 -121.2500 322° Northwest 276 318 9,200 -1,500 Descending Northern Cal TRACON
08:36PM 37.6167 -121.3500 282° West 273 314 7,500 -1,440 Descending Northern Cal TRACON
08:37PM 37.6500 -121.4333 297° West 273 314 6,400 -1,080 Descending Northern Cal TRACON
08:38PM 37.6667 -121.5333 282° West 260 299 5,400 -1,140 Descending Northern Cal TRACON
08:39PM 37.6833 -121.6167 284° West 233 268 4,200 -1,380 Descending Northern Cal TRACON
08:40PM 37.7000 -121.6833 288° West 222 255 2,700 -1,200 Descending Northern Cal TRACON
08:41PM 37.7000 -121.7500 270° West 175 201 1,900 -660 Descending Northern Cal TRACON
08:42PM 37.7000 -121.8000 270° West 146 168 1,400 -540 Descending Northern Cal TRACON